sensor_id;sensor_type;location;lat;lon;timestamp;temperature;humidity
22633;DHT22;11483;55.828;37.488;2024-02-04T00:02:03;0.40;99.90
22633;DHT22;11483;55.828;37.488;2024-02-04T00:04:29;0.40;99.90
22633;DHT22;11483;55.828;37.488;2024-02-04T00:06:57;0.40;99.90
22633;DHT22;11483;55.828;37.488;2024-02-04T00:09:23;0.50;99.90
22633;DHT22;11483;55.828;37.488;2024-02-04T00:11:49;0.50;99.90
22633;DHT22;11483;55.828;37.488;2024-02-04T00:14:15;0.50;99.90
22633;DHT22;11483;55.828;37.488;2024-02-04T00:16:41;0.50;99.90
22633;DHT22;11483;55.828;37.488;2024-02-04T00:19:07;0.40;99.90
22633;DHT22;11483;55.828;37.488;2024-02-04T00:21:34;0.40;99.90
22633;DHT22;11483;55.828;37.488;2024-02-04T00:24:00;0.50;99.90
22633;DHT22;11483;55.828;37.488;2024-02-04T00:26:26;0.40;99.90
22633;DHT22;11483;55.828;37.488;2024-02-04T00:28:51;0.50;99.90
22633;DHT22;11483;55.828;37.488;2024-02-04T00:31:17;0.50;99.90
22633;DHT22;11483;55.828;37.488;2024-02-04T00:33:43;0.50;99.90
22633;DHT22;11483;55.828;37.488;2024-02-04T00:36:09;0.50;99.90
22633;DHT22;11483;55.828;37.488;2024-02-04T00:38:35;0.50;99.90
22633;DHT22;11483;55.828;37.488;2024-02-04T00:41:01;0.50;99.90
22633;DHT22;11483;55.828;37.488;2024-02-04T00:43:46;0.50;99.90
22633;DHT22;11483;55.828;37.488;2024-02-04T00:46:12;0.50;99.90
22633;DHT22;11483;55.828;37.488;2024-02-04T00:48:38;0.60;99.90
22633;DHT22;11483;55.828;37.488;2024-02-04T00:51:06;0.60;99.90
22633;DHT22;11483;55.828;37.488;2024-02-04T00:53:32;0.70;99.90
22633;DHT22;11483;55.828;37.488;2024-02-04T00:56:02;0.60;99.90
22633;DHT22;11483;55.828;37.488;2024-02-04T00:58:28;0.60;99.90
22633;DHT22;11483;55.828;37.488;2024-02-04T01:00:54;0.70;99.90
22633;DHT22;11483;55.828;37.488;2024-02-04T01:03:20;0.70;99.90
22633;DHT22;11483;55.828;37.488;2024-02-04T01:05:46;0.70;99.90
22633;DHT22;11483;55.828;37.488;2024-02-04T01:08:12;0.80;99.90
22633;DHT22;11483;55.828;37.488;2024-02-04T01:10:38;0.80;99.90
22633;DHT22;11483;55.828;37.488;2024-02-04T01:13:04;0.70;99.90
22633;DHT22;11483;55.828;37.488;2024-02-04T01:15:30;0.80;99.90
22633;DHT22;11483;55.828;37.488;2024-02-04T01:17:56;0.80;99.90
22633;DHT22;11483;55.828;37.488;2024-02-04T01:20:21;0.80;99.90
22633;DHT22;11483;55.828;37.488;2024-02-04T01:22:47;0.80;99.90
22633;DHT22;11483;55.828;37.488;2024-02-04T01:25:13;0.70;99.90
22633;DHT22;11483;55.828;37.488;2024-02-04T01:27:39;0.70;99.90
22633;DHT22;11483;55.828;37.488;2024-02-04T01:30:06;0.80;99.90
22633;DHT22;11483;55.828;37.488;2024-02-04T01:32:33;0.80;99.90
22633;DHT22;11483;55.828;37.488;2024-02-04T01:34:59;0.70;99.90
22633;DHT22;11483;55.828;37.488;2024-02-04T01:37:24;0.80;99.90
22633;DHT22;11483;55.828;37.488;2024-02-04T01:39:50;0.80;99.90
22633;DHT22;11483;55.828;37.488;2024-02-04T01:42:16;0.70;99.90
22633;DHT22;11483;55.828;37.488;2024-02-04T01:44:42;0.70;99.90
22633;DHT22;11483;55.828;37.488;2024-02-04T01:47:09;0.70;99.90
22633;DHT22;11483;55.828;37.488;2024-02-04T01:49:35;0.70;99.90
22633;DHT22;11483;55.828;37.488;2024-02-04T01:52:02;0.80;99.90
22633;DHT22;11483;55.828;37.488;2024-02-04T01:54:31;0.70;99.90
22633;DHT22;11483;55.828;37.488;2024-02-04T01:56:58;0.80;99.90
22633;DHT22;11483;55.828;37.488;2024-02-04T01:59:27;0.80;99.90
22633;DHT22;11483;55.828;37.488;2024-02-04T02:01:59;0.80;99.90
22633;DHT22;11483;55.828;37.488;2024-02-04T02:04:44;0.80;99.90
22633;DHT22;11483;55.828;37.488;2024-02-04T02:09:56;0.80;99.90
22633;DHT22;11483;55.828;37.488;2024-02-04T02:12:29;0.80;99.90
22633;DHT22;11483;55.828;37.488;2024-02-04T02:15:11;0.80;99.90
22633;DHT22;11483;55.828;37.488;2024-02-04T02:18:10;0.90;99.90
22633;DHT22;11483;55.828;37.488;2024-02-04T02:23:53;0.90;99.90
22633;DHT22;11483;55.828;37.488;2024-02-04T02:26:24;1.00;99.90
22633;DHT22;11483;55.828;37.488;2024-02-04T02:28:50;0.90;99.90
22633;DHT22;11483;55.828;37.488;2024-02-04T02:31:16;1.00;99.90
22633;DHT22;11483;55.828;37.488;2024-02-04T02:33:42;1.00;99.90
22633;DHT22;11483;55.828;37.488;2024-02-04T02:36:13;1.00;99.90
22633;DHT22;11483;55.828;37.488;2024-02-04T02:39:09;1.00;99.90
22633;DHT22;11483;55.828;37.488;2024-02-04T02:41:36;1.10;99.90
22633;DHT22;11483;55.828;37.488;2024-02-04T02:44:05;1.10;99.90
22633;DHT22;11483;55.828;37.488;2024-02-04T02:46:31;1.10;99.90
22633;DHT22;11483;55.828;37.488;2024-02-04T02:48:57;1.10;99.90
22633;DHT22;11483;55.828;37.488;2024-02-04T02:51:23;1.20;99.90
22633;DHT22;11483;55.828;37.488;2024-02-04T02:53:49;1.20;99.90
22633;DHT22;11483;55.828;37.488;2024-02-04T02:56:15;1.20;99.90
22633;DHT22;11483;55.828;37.488;2024-02-04T02:58:41;1.30;99.90
22633;DHT22;11483;55.828;37.488;2024-02-04T03:01:08;1.30;99.90
22633;DHT22;11483;55.828;37.488;2024-02-04T03:03:34;1.40;99.90
22633;DHT22;11483;55.828;37.488;2024-02-04T03:05:59;1.30;99.90
22633;DHT22;11483;55.828;37.488;2024-02-04T03:08:25;1.40;99.90
22633;DHT22;11483;55.828;37.488;2024-02-04T03:10:51;1.30;99.90
22633;DHT22;11483;55.828;37.488;2024-02-04T03:13:17;1.40;99.90
22633;DHT22;11483;55.828;37.488;2024-02-04T03:15:44;1.40;99.90
22633;DHT22;11483;55.828;37.488;2024-02-04T03:18:10;1.40;99.90
22633;DHT22;11483;55.828;37.488;2024-02-04T03:20:36;1.40;99.90
22633;DHT22;11483;55.828;37.488;2024-02-04T03:23:02;1.40;99.90
22633;DHT22;11483;55.828;37.488;2024-02-04T03:25:28;1.50;99.90
22633;DHT22;11483;55.828;37.488;2024-02-04T03:27:55;1.50;99.90
22633;DHT22;11483;55.828;37.488;2024-02-04T03:30:24;1.50;99.90
22633;DHT22;11483;55.828;37.488;2024-02-04T03:32:50;1.40;99.90
22633;DHT22;11483;55.828;37.488;2024-02-04T03:35:16;1.50;99.90
22633;DHT22;11483;55.828;37.488;2024-02-04T03:37:42;1.50;99.90
22633;DHT22;11483;55.828;37.488;2024-02-04T03:40:08;1.50;99.90
22633;DHT22;11483;55.828;37.488;2024-02-04T03:42:34;1.50;99.90
22633;DHT22;11483;55.828;37.488;2024-02-04T03:45:00;1.50;99.90
22633;DHT22;11483;55.828;37.488;2024-02-04T03:47:28;1.60;99.90
22633;DHT22;11483;55.828;37.488;2024-02-04T03:49:54;1.70;99.90
22633;DHT22;11483;55.828;37.488;2024-02-04T03:52:20;1.70;99.90
22633;DHT22;11483;55.828;37.488;2024-02-04T03:54:46;1.70;99.90
22633;DHT22;11483;55.828;37.488;2024-02-04T03:57:12;1.70;99.90
22633;DHT22;11483;55.828;37.488;2024-02-04T03:59:38;1.70;99.90
22633;DHT22;11483;55.828;37.488;2024-02-04T04:02:04;1.80;99.90
22633;DHT22;11483;55.828;37.488;2024-02-04T04:04:29;1.80;99.90
22633;DHT22;11483;55.828;37.488;2024-02-04T04:06:55;1.80;99.90
22633;DHT22;11483;55.828;37.488;2024-02-04T04:09:21;1.80;99.90
22633;DHT22;11483;55.828;37.488;2024-02-04T04:11:47;1.80;99.90
22633;DHT22;11483;55.828;37.488;2024-02-04T04:14:13;1.80;99.90
22633;DHT22;11483;55.828;37.488;2024-02-04T04:16:39;1.80;99.90
22633;DHT22;11483;55.828;37.488;2024-02-04T04:19:05;1.80;99.90
22633;DHT22;11483;55.828;37.488;2024-02-04T04:21:30;1.80;99.90
22633;DHT22;11483;55.828;37.488;2024-02-04T04:23:56;1.90;99.90
22633;DHT22;11483;55.828;37.488;2024-02-04T04:26:22;1.90;99.90
22633;DHT22;11483;55.828;37.488;2024-02-04T04:28:48;1.90;99.90
22633;DHT22;11483;55.828;37.488;2024-02-04T04:31:14;1.90;99.90
22633;DHT22;11483;55.828;37.488;2024-02-04T04:33:40;1.90;99.90
22633;DHT22;11483;55.828;37.488;2024-02-04T04:36:06;1.90;99.90
22633;DHT22;11483;55.828;37.488;2024-02-04T04:38:32;1.90;99.90
22633;DHT22;11483;55.828;37.488;2024-02-04T04:40:58;1.90;99.90
22633;DHT22;11483;55.828;37.488;2024-02-04T04:43:24;1.90;99.90
22633;DHT22;11483;55.828;37.488;2024-02-04T04:45:52;1.90;99.90
22633;DHT22;11483;55.828;37.488;2024-02-04T04:48:18;1.90;99.90
22633;DHT22;11483;55.828;37.488;2024-02-04T04:50:44;1.90;99.90
22633;DHT22;11483;55.828;37.488;2024-02-04T04:53:10;1.90;99.90
22633;DHT22;11483;55.828;37.488;2024-02-04T04:55:35;1.90;99.90
22633;DHT22;11483;55.828;37.488;2024-02-04T04:58:01;1.80;99.90
22633;DHT22;11483;55.828;37.488;2024-02-04T05:00:27;1.90;99.90
22633;DHT22;11483;55.828;37.488;2024-02-04T05:02:53;1.90;99.90
22633;DHT22;11483;55.828;37.488;2024-02-04T05:05:19;1.90;99.90
22633;DHT22;11483;55.828;37.488;2024-02-04T05:07:45;1.90;99.90
22633;DHT22;11483;55.828;37.488;2024-02-04T05:10:12;1.90;99.90
22633;DHT22;11483;55.828;37.488;2024-02-04T05:12:38;1.90;99.90
22633;DHT22;11483;55.828;37.488;2024-02-04T05:15:05;1.90;99.90
22633;DHT22;11483;55.828;37.488;2024-02-04T05:20:15;1.90;99.90
22633;DHT22;11483;55.828;37.488;2024-02-04T05:22:41;1.90;99.90
22633;DHT22;11483;55.828;37.488;2024-02-04T05:25:07;1.90;99.90
22633;DHT22;11483;55.828;37.488;2024-02-04T05:27:35;1.90;99.90
22633;DHT22;11483;55.828;37.488;2024-02-04T05:30:02;1.90;99.90
22633;DHT22;11483;55.828;37.488;2024-02-04T05:32:28;1.90;99.90
22633;DHT22;11483;55.828;37.488;2024-02-04T05:34:54;1.90;99.90
22633;DHT22;11483;55.828;37.488;2024-02-04T05:37:20;1.90;99.90
22633;DHT22;11483;55.828;37.488;2024-02-04T05:39:47;1.90;99.90
22633;DHT22;11483;55.828;37.488;2024-02-04T05:42:13;2.00;99.90
22633;DHT22;11483;55.828;37.488;2024-02-04T05:44:39;2.00;99.90
22633;DHT22;11483;55.828;37.488;2024-02-04T05:47:05;2.00;99.90
22633;DHT22;11483;55.828;37.488;2024-02-04T05:49:30;2.00;99.90
22633;DHT22;11483;55.828;37.488;2024-02-04T05:51:56;1.90;99.90
22633;DHT22;11483;55.828;37.488;2024-02-04T05:54:22;2.00;99.90
22633;DHT22;11483;55.828;37.488;2024-02-04T05:56:49;2.00;99.90
22633;DHT22;11483;55.828;37.488;2024-02-04T05:59:15;1.90;99.90
22633;DHT22;11483;55.828;37.488;2024-02-04T06:01:42;2.00;99.90
22633;DHT22;11483;55.828;37.488;2024-02-04T06:04:08;2.00;99.90
22633;DHT22;11483;55.828;37.488;2024-02-04T06:06:34;1.90;99.90
22633;DHT22;11483;55.828;37.488;2024-02-04T06:09:01;2.00;99.90
22633;DHT22;11483;55.828;37.488;2024-02-04T06:11:27;2.00;99.90
22633;DHT22;11483;55.828;37.488;2024-02-04T06:13:53;2.00;99.90
22633;DHT22;11483;55.828;37.488;2024-02-04T06:16:19;1.90;99.90
22633;DHT22;11483;55.828;37.488;2024-02-04T06:18:45;1.90;99.90
22633;DHT22;11483;55.828;37.488;2024-02-04T06:21:11;1.80;99.90
22633;DHT22;11483;55.828;37.488;2024-02-04T06:23:38;1.80;99.90
22633;DHT22;11483;55.828;37.488;2024-02-04T06:26:05;1.80;99.90
22633;DHT22;11483;55.828;37.488;2024-02-04T06:28:31;1.80;99.90
22633;DHT22;11483;55.828;37.488;2024-02-04T06:30:57;1.80;99.90
22633;DHT22;11483;55.828;37.488;2024-02-04T06:33:23;1.80;99.90
22633;DHT22;11483;55.828;37.488;2024-02-04T06:35:50;1.80;99.90
22633;DHT22;11483;55.828;37.488;2024-02-04T06:38:16;1.80;99.90
22633;DHT22;11483;55.828;37.488;2024-02-04T06:40:42;1.80;99.90
22633;DHT22;11483;55.828;37.488;2024-02-04T06:43:08;1.80;99.90
22633;DHT22;11483;55.828;37.488;2024-02-04T06:45:34;1.50;99.90
22633;DHT22;11483;55.828;37.488;2024-02-04T06:48:00;1.70;99.90
22633;DHT22;11483;55.828;37.488;2024-02-04T06:50:26;1.70;99.90
22633;DHT22;11483;55.828;37.488;2024-02-04T06:52:52;1.70;99.90
22633;DHT22;11483;55.828;37.488;2024-02-04T06:55:18;1.70;99.90
22633;DHT22;11483;55.828;37.488;2024-02-04T06:57:43;1.70;99.90
22633;DHT22;11483;55.828;37.488;2024-02-04T07:00:10;1.80;99.90
22633;DHT22;11483;55.828;37.488;2024-02-04T07:02:37;1.80;99.90
22633;DHT22;11483;55.828;37.488;2024-02-04T07:05:04;1.80;99.90
22633;DHT22;11483;55.828;37.488;2024-02-04T07:07:30;1.80;99.90
22633;DHT22;11483;55.828;37.488;2024-02-04T07:09:57;1.70;99.90
22633;DHT22;11483;55.828;37.488;2024-02-04T07:12:23;1.70;99.90
22633;DHT22;11483;55.828;37.488;2024-02-04T07:14:49;1.70;99.90
22633;DHT22;11483;55.828;37.488;2024-02-04T07:17:15;1.70;99.90
22633;DHT22;11483;55.828;37.488;2024-02-04T07:19:41;1.60;99.90
22633;DHT22;11483;55.828;37.488;2024-02-04T07:22:07;1.60;99.90
22633;DHT22;11483;55.828;37.488;2024-02-04T07:24:33;1.60;99.90
22633;DHT22;11483;55.828;37.488;2024-02-04T07:26:58;1.60;99.90
22633;DHT22;11483;55.828;37.488;2024-02-04T07:29:24;1.50;99.90
22633;DHT22;11483;55.828;37.488;2024-02-04T07:31:50;1.50;99.90
22633;DHT22;11483;55.828;37.488;2024-02-04T07:34:16;1.50;99.90
22633;DHT22;11483;55.828;37.488;2024-02-04T07:36:42;1.50;99.90
22633;DHT22;11483;55.828;37.488;2024-02-04T07:39:10;1.60;99.90
22633;DHT22;11483;55.828;37.488;2024-02-04T07:41:36;1.60;99.90
22633;DHT22;11483;55.828;37.488;2024-02-04T07:44:04;1.60;99.90
22633;DHT22;11483;55.828;37.488;2024-02-04T07:46:31;1.60;99.90
22633;DHT22;11483;55.828;37.488;2024-02-04T07:48:57;1.60;99.90
22633;DHT22;11483;55.828;37.488;2024-02-04T07:51:23;1.60;99.90
22633;DHT22;11483;55.828;37.488;2024-02-04T07:53:49;1.70;99.90
22633;DHT22;11483;55.828;37.488;2024-02-04T07:56:15;1.70;99.90
22633;DHT22;11483;55.828;37.488;2024-02-04T07:58:41;1.70;99.90
22633;DHT22;11483;55.828;37.488;2024-02-04T08:01:07;1.70;99.90
22633;DHT22;11483;55.828;37.488;2024-02-04T08:03:33;1.70;99.90
22633;DHT22;11483;55.828;37.488;2024-02-04T08:05:59;1.70;99.90
22633;DHT22;11483;55.828;37.488;2024-02-04T08:08:25;1.70;99.90
22633;DHT22;11483;55.828;37.488;2024-02-04T08:10:51;1.70;99.90
22633;DHT22;11483;55.828;37.488;2024-02-04T08:13:17;1.70;99.90
22633;DHT22;11483;55.828;37.488;2024-02-04T08:15:42;1.70;99.90
22633;DHT22;11483;55.828;37.488;2024-02-04T08:18:08;1.70;99.90
22633;DHT22;11483;55.828;37.488;2024-02-04T08:20:34;1.70;99.90
22633;DHT22;11483;55.828;37.488;2024-02-04T08:23:00;1.70;99.90
22633;DHT22;11483;55.828;37.488;2024-02-04T08:25:26;1.70;99.90
22633;DHT22;11483;55.828;37.488;2024-02-04T08:27:52;1.70;99.90
22633;DHT22;11483;55.828;37.488;2024-02-04T08:30:18;1.70;99.90
22633;DHT22;11483;55.828;37.488;2024-02-04T08:32:45;1.70;99.90
22633;DHT22;11483;55.828;37.488;2024-02-04T08:35:11;1.70;99.90
22633;DHT22;11483;55.828;37.488;2024-02-04T08:37:37;1.70;99.90
22633;DHT22;11483;55.828;37.488;2024-02-04T08:40:07;1.60;99.90
22633;DHT22;11483;55.828;37.488;2024-02-04T08:42:33;1.70;99.90
22633;DHT22;11483;55.828;37.488;2024-02-04T08:44:59;1.70;99.90
22633;DHT22;11483;55.828;37.488;2024-02-04T08:47:24;1.70;99.90
22633;DHT22;11483;55.828;37.488;2024-02-04T08:49:50;1.70;99.90
22633;DHT22;11483;55.828;37.488;2024-02-04T08:52:16;1.70;99.90
22633;DHT22;11483;55.828;37.488;2024-02-04T08:54:42;1.00;99.90
22633;DHT22;11483;55.828;37.488;2024-02-04T08:57:08;1.70;99.90
22633;DHT22;11483;55.828;37.488;2024-02-04T08:59:34;1.70;99.90
22633;DHT22;11483;55.828;37.488;2024-02-04T09:02:00;1.70;99.90
22633;DHT22;11483;55.828;37.488;2024-02-04T09:04:26;1.70;99.90
22633;DHT22;11483;55.828;37.488;2024-02-04T09:06:52;1.70;99.90
22633;DHT22;11483;55.828;37.488;2024-02-04T09:09:18;1.70;99.90
22633;DHT22;11483;55.828;37.488;2024-02-04T09:11:43;1.80;99.90
22633;DHT22;11483;55.828;37.488;2024-02-04T09:14:09;1.90;99.90
22633;DHT22;11483;55.828;37.488;2024-02-04T09:16:38;1.90;99.90
22633;DHT22;11483;55.828;37.488;2024-02-04T09:19:05;1.90;99.90
22633;DHT22;11483;55.828;37.488;2024-02-04T09:21:30;1.90;99.90
22633;DHT22;11483;55.828;37.488;2024-02-04T09:23:56;1.90;99.90
22633;DHT22;11483;55.828;37.488;2024-02-04T09:26:23;1.90;99.90
22633;DHT22;11483;55.828;37.488;2024-02-04T09:28:49;2.00;99.90
22633;DHT22;11483;55.828;37.488;2024-02-04T09:31:15;2.10;99.90
22633;DHT22;11483;55.828;37.488;2024-02-04T09:33:41;2.10;99.90
22633;DHT22;11483;55.828;37.488;2024-02-04T09:36:09;2.10;99.90
22633;DHT22;11483;55.828;37.488;2024-02-04T09:38:35;2.20;99.90
22633;DHT22;11483;55.828;37.488;2024-02-04T09:41:01;2.20;99.90
22633;DHT22;11483;55.828;37.488;2024-02-04T09:43:33;2.20;99.90
22633;DHT22;11483;55.828;37.488;2024-02-04T09:46:01;2.10;99.90
22633;DHT22;11483;55.828;37.488;2024-02-04T09:48:31;2.10;99.90
22633;DHT22;11483;55.828;37.488;2024-02-04T09:50:57;2.00;99.90
22633;DHT22;11483;55.828;37.488;2024-02-04T09:53:32;1.90;99.90
22633;DHT22;11483;55.828;37.488;2024-02-04T09:56:04;1.80;99.90
22633;DHT22;11483;55.828;37.488;2024-02-04T09:58:32;1.70;99.90
22633;DHT22;11483;55.828;37.488;2024-02-04T10:01:00;1.70;99.90
22633;DHT22;11483;55.828;37.488;2024-02-04T10:03:26;1.80;99.90
22633;DHT22;11483;55.828;37.488;2024-02-04T10:05:52;1.90;99.90
22633;DHT22;11483;55.828;37.488;2024-02-04T10:08:18;2.00;99.90
22633;DHT22;11483;55.828;37.488;2024-02-04T10:10:45;2.00;99.90
22633;DHT22;11483;55.828;37.488;2024-02-04T10:13:11;2.10;99.90
22633;DHT22;11483;55.828;37.488;2024-02-04T10:15:37;2.20;99.90
22633;DHT22;11483;55.828;37.488;2024-02-04T10:18:07;2.30;99.90
22633;DHT22;11483;55.828;37.488;2024-02-04T10:20:33;2.40;99.90
22633;DHT22;11483;55.828;37.488;2024-02-04T10:22:59;2.40;99.90
22633;DHT22;11483;55.828;37.488;2024-02-04T10:25:25;2.50;99.90
22633;DHT22;11483;55.828;37.488;2024-02-04T10:27:52;2.60;99.90
22633;DHT22;11483;55.828;37.488;2024-02-04T10:30:19;2.60;99.90
22633;DHT22;11483;55.828;37.488;2024-02-04T10:32:50;2.80;99.90
22633;DHT22;11483;55.828;37.488;2024-02-04T10:35:17;2.80;99.90
22633;DHT22;11483;55.828;37.488;2024-02-04T10:37:45;2.90;99.90
22633;DHT22;11483;55.828;37.488;2024-02-04T10:40:11;2.80;99.90
22633;DHT22;11483;55.828;37.488;2024-02-04T10:42:38;2.60;99.90
22633;DHT22;11483;55.828;37.488;2024-02-04T10:45:08;2.60;99.90
22633;DHT22;11483;55.828;37.488;2024-02-04T10:47:38;2.50;99.90
22633;DHT22;11483;55.828;37.488;2024-02-04T10:50:05;2.40;99.90
22633;DHT22;11483;55.828;37.488;2024-02-04T10:52:36;2.40;99.90
22633;DHT22;11483;55.828;37.488;2024-02-04T10:55:07;2.40;99.90
22633;DHT22;11483;55.828;37.488;2024-02-04T10:57:34;2.40;99.90
22633;DHT22;11483;55.828;37.488;2024-02-04T11:00:02;2.40;99.90
22633;DHT22;11483;55.828;37.488;2024-02-04T11:02:34;2.40;99.90
22633;DHT22;11483;55.828;37.488;2024-02-04T11:05:01;2.30;99.90
22633;DHT22;11483;55.828;37.488;2024-02-04T11:07:29;2.40;99.90
22633;DHT22;11483;55.828;37.488;2024-02-04T11:09:57;2.40;99.90
22633;DHT22;11483;55.828;37.488;2024-02-04T11:12:24;2.50;99.90
22633;DHT22;11483;55.828;37.488;2024-02-04T11:14:54;2.50;99.90
22633;DHT22;11483;55.828;37.488;2024-02-04T11:20:58;2.80;99.90
22633;DHT22;11483;55.828;37.488;2024-02-04T11:26:09;3.30;99.90
22633;DHT22;11483;55.828;37.488;2024-02-04T11:28:35;3.20;99.90
22633;DHT22;11483;55.828;37.488;2024-02-04T11:31:02;3.30;99.90
22633;DHT22;11483;55.828;37.488;2024-02-04T11:33:28;3.70;99.90
22633;DHT22;11483;55.828;37.488;2024-02-04T11:36:14;4.80;99.90
22633;DHT22;11483;55.828;37.488;2024-02-04T11:38:41;5.30;99.90
22633;DHT22;11483;55.828;37.488;2024-02-04T11:41:07;5.30;99.90
22633;DHT22;11483;55.828;37.488;2024-02-04T11:43:34;5.60;99.90
22633;DHT22;11483;55.828;37.488;2024-02-04T11:46:03;5.50;99.90
22633;DHT22;11483;55.828;37.488;2024-02-04T11:48:30;5.50;99.90
22633;DHT22;11483;55.828;37.488;2024-02-04T11:50:59;5.80;99.90
22633;DHT22;11483;55.828;37.488;2024-02-04T11:53:29;6.30;99.90
22633;DHT22;11483;55.828;37.488;2024-02-04T11:56:00;6.90;99.90
22633;DHT22;11483;55.828;37.488;2024-02-04T11:58:29;7.10;99.90
22633;DHT22;11483;55.828;37.488;2024-02-04T12:00:56;7.30;99.90
22633;DHT22;11483;55.828;37.488;2024-02-04T12:03:32;7.80;99.90
22633;DHT22;11483;55.828;37.488;2024-02-04T12:05:59;7.80;99.90
22633;DHT22;11483;55.828;37.488;2024-02-04T12:11:09;5.70;99.90
22633;DHT22;11483;55.828;37.488;2024-02-04T12:13:36;5.50;99.90
22633;DHT22;11483;55.828;37.488;2024-02-04T12:16:06;5.60;99.90
22633;DHT22;11483;55.828;37.488;2024-02-04T12:18:34;5.60;99.90
22633;DHT22;11483;55.828;37.488;2024-02-04T12:20:59;5.20;99.90
22633;DHT22;11483;55.828;37.488;2024-02-04T12:23:26;4.80;99.90
22633;DHT22;11483;55.828;37.488;2024-02-04T12:25:55;5.40;99.90
22633;DHT22;11483;55.828;37.488;2024-02-04T12:28:21;5.80;99.90
22633;DHT22;11483;55.828;37.488;2024-02-04T12:30:56;5.70;99.90
22633;DHT22;11483;55.828;37.488;2024-02-04T12:33:24;5.30;99.90
22633;DHT22;11483;55.828;37.488;2024-02-04T12:35:53;4.80;99.90
22633;DHT22;11483;55.828;37.488;2024-02-04T12:38:21;4.40;99.90
22633;DHT22;11483;55.828;37.488;2024-02-04T12:40:48;4.10;99.90
22633;DHT22;11483;55.828;37.488;2024-02-04T12:43:14;3.80;99.90
22633;DHT22;11483;55.828;37.488;2024-02-04T12:45:40;3.70;99.90
22633;DHT22;11483;55.828;37.488;2024-02-04T12:48:08;3.50;99.90
22633;DHT22;11483;55.828;37.488;2024-02-04T12:50:37;3.40;99.90
22633;DHT22;11483;55.828;37.488;2024-02-04T12:53:07;3.40;99.90
22633;DHT22;11483;55.828;37.488;2024-02-04T12:55:35;3.30;99.90
22633;DHT22;11483;55.828;37.488;2024-02-04T13:00:35;3.20;99.90
22633;DHT22;11483;55.828;37.488;2024-02-04T13:03:05;3.20;99.90
22633;DHT22;11483;55.828;37.488;2024-02-04T13:05:34;3.10;99.90
22633;DHT22;11483;55.828;37.488;2024-02-04T13:08:01;2.90;99.90
22633;DHT22;11483;55.828;37.488;2024-02-04T13:10:32;2.80;99.90
22633;DHT22;11483;55.828;37.488;2024-02-04T13:13:09;2.70;99.90
22633;DHT22;11483;55.828;37.488;2024-02-04T13:15:43;2.70;99.90
22633;DHT22;11483;55.828;37.488;2024-02-04T13:18:09;2.60;99.90
22633;DHT22;11483;55.828;37.488;2024-02-04T13:20:41;2.60;99.90
22633;DHT22;11483;55.828;37.488;2024-02-04T13:23:08;2.60;99.90
22633;DHT22;11483;55.828;37.488;2024-02-04T13:25:34;2.60;99.90
22633;DHT22;11483;55.828;37.488;2024-02-04T13:28:00;2.50;99.90
22633;DHT22;11483;55.828;37.488;2024-02-04T13:30:27;2.50;99.90
22633;DHT22;11483;55.828;37.488;2024-02-04T13:32:53;2.40;99.90
22633;DHT22;11483;55.828;37.488;2024-02-04T13:35:19;2.30;99.90
22633;DHT22;11483;55.828;37.488;2024-02-04T13:37:46;2.20;99.90
22633;DHT22;11483;55.828;37.488;2024-02-04T13:40:17;2.20;99.90
22633;DHT22;11483;55.828;37.488;2024-02-04T13:42:43;2.20;99.90
22633;DHT22;11483;55.828;37.488;2024-02-04T13:45:10;2.20;99.90
22633;DHT22;11483;55.828;37.488;2024-02-04T13:47:38;2.20;99.90
22633;DHT22;11483;55.828;37.488;2024-02-04T13:50:05;2.20;99.90
22633;DHT22;11483;55.828;37.488;2024-02-04T13:52:31;2.10;99.90
22633;DHT22;11483;55.828;37.488;2024-02-04T13:54:57;2.10;99.90
22633;DHT22;11483;55.828;37.488;2024-02-04T13:57:23;2.00;99.90
22633;DHT22;11483;55.828;37.488;2024-02-04T13:59:49;2.00;99.90
22633;DHT22;11483;55.828;37.488;2024-02-04T14:02:34;2.00;99.90
22633;DHT22;11483;55.828;37.488;2024-02-04T14:05:00;1.90;99.90
22633;DHT22;11483;55.828;37.488;2024-02-04T14:07:26;1.90;99.90
22633;DHT22;11483;55.828;37.488;2024-02-04T14:09:53;1.90;99.90
22633;DHT22;11483;55.828;37.488;2024-02-04T14:12:19;1.80;99.90
22633;DHT22;11483;55.828;37.488;2024-02-04T14:14:45;1.80;99.90
22633;DHT22;11483;55.828;37.488;2024-02-04T14:17:10;1.70;99.90
22633;DHT22;11483;55.828;37.488;2024-02-04T14:19:36;1.70;99.90
22633;DHT22;11483;55.828;37.488;2024-02-04T14:22:02;1.70;99.90
22633;DHT22;11483;55.828;37.488;2024-02-04T14:24:28;1.70;99.90
22633;DHT22;11483;55.828;37.488;2024-02-04T14:26:58;1.70;99.90
22633;DHT22;11483;55.828;37.488;2024-02-04T14:29:24;1.60;99.90
22633;DHT22;11483;55.828;37.488;2024-02-04T14:31:52;1.60;99.90
22633;DHT22;11483;55.828;37.488;2024-02-04T14:34:18;1.70;99.90
22633;DHT22;11483;55.828;37.488;2024-02-04T14:36:44;1.70;99.90
22633;DHT22;11483;55.828;37.488;2024-02-04T14:39:10;1.80;99.90
22633;DHT22;11483;55.828;37.488;2024-02-04T14:41:36;1.80;99.90
22633;DHT22;11483;55.828;37.488;2024-02-04T14:44:02;1.80;99.90
22633;DHT22;11483;55.828;37.488;2024-02-04T14:46:28;1.90;99.90
22633;DHT22;11483;55.828;37.488;2024-02-04T14:48:54;1.90;99.90
22633;DHT22;11483;55.828;37.488;2024-02-04T14:51:20;2.00;99.90
22633;DHT22;11483;55.828;37.488;2024-02-04T14:53:46;2.00;99.90
22633;DHT22;11483;55.828;37.488;2024-02-04T14:56:12;2.10;99.90
22633;DHT22;11483;55.828;37.488;2024-02-04T14:58:38;2.20;99.90
22633;DHT22;11483;55.828;37.488;2024-02-04T15:01:04;2.20;99.90
22633;DHT22;11483;55.828;37.488;2024-02-04T15:03:30;2.30;99.90
22633;DHT22;11483;55.828;37.488;2024-02-04T15:05:55;2.30;99.90
22633;DHT22;11483;55.828;37.488;2024-02-04T15:08:40;2.30;99.90
22633;DHT22;11483;55.828;37.488;2024-02-04T15:11:05;2.30;99.90
22633;DHT22;11483;55.828;37.488;2024-02-04T15:13:33;2.30;99.90
22633;DHT22;11483;55.828;37.488;2024-02-04T15:15:59;2.20;99.90
22633;DHT22;11483;55.828;37.488;2024-02-04T15:18:25;2.20;99.90
22633;DHT22;11483;55.828;37.488;2024-02-04T15:20:52;2.10;99.90
22633;DHT22;11483;55.828;37.488;2024-02-04T15:23:18;2.10;99.90
22633;DHT22;11483;55.828;37.488;2024-02-04T15:25:44;2.10;99.90
22633;DHT22;11483;55.828;37.488;2024-02-04T15:28:11;2.10;99.90
22633;DHT22;11483;55.828;37.488;2024-02-04T15:30:39;2.10;99.90
22633;DHT22;11483;55.828;37.488;2024-02-04T15:33:05;2.10;99.90
22633;DHT22;11483;55.828;37.488;2024-02-04T15:35:32;2.10;99.90
22633;DHT22;11483;55.828;37.488;2024-02-04T15:37:59;2.10;99.90
22633;DHT22;11483;55.828;37.488;2024-02-04T15:40:25;2.20;99.90
22633;DHT22;11483;55.828;37.488;2024-02-04T15:42:51;2.20;99.90
22633;DHT22;11483;55.828;37.488;2024-02-04T15:45:17;2.20;99.90
22633;DHT22;11483;55.828;37.488;2024-02-04T15:47:50;2.20;99.90
22633;DHT22;11483;55.828;37.488;2024-02-04T15:50:20;2.20;99.90